Time;durP1;ratioP1;P1;durP2;ratioP2;P2;SDS_P1;SDS_P2;PMS_P1;PMS_P2;Temp;Humidity;BMP_temperature;BMP_pressure;BME280_temperature;BME280_humidity;BME280_pressure;Samples;Min_cycle;Max_cycle;Signal;HPM_P1;HPM_P2
2021/11/04 00:01:24;;;;;;;58.65;19.92;;;;;;;11.72;100.00;101333.92;1819232;77;21603;-64
2021/11/04 00:03:51;;;;;;;32.53;19.45;;;;;;;11.70;100.00;101327.72;1823333;77;21058;-63
2021/11/04 00:06:17;;;;;;;31.93;18.92;;;;;;;11.68;100.00;101321.52;1818285;77;20996;-64
2021/11/04 00:08:44;;;;;;;41.77;18.25;;;;;;;11.69;100.00;101319.25;1815893;77;21110;-63
2021/11/04 00:11:11;;;;;;;31.97;18.32;;;;;;;11.72;100.00;101319.63;1820110;77;21018;-64
2021/11/04 00:13:37;;;;;;;30.92;19.00;;;;;;;11.78;100.00;101316.75;1815368;77;21435;-63
2021/11/04 00:16:08;;;;;;;30.92;19.42;;;;;;;11.83;100.00;101321.51;1809568;77;21420;-63
2021/11/04 00:18:35;;;;;;;34.67;21.05;;;;;;;11.90;100.00;101323.06;1812884;77;20940;-62
2021/11/04 00:21:01;;;;;;;31.23;19.65;;;;;;;11.98;100.00;101320.63;1807708;77;20975;-64
2021/11/04 00:23:28;;;;;;;36.60;21.57;;;;;;;12.08;100.00;101314.04;1812835;77;21038;-63
2021/11/04 00:25:54;;;;;;;34.48;21.48;;;;;;;12.17;100.00;101323.62;1798850;77;20962;-64
2021/11/04 00:28:20;;;;;;;32.35;20.95;;;;;;;12.22;100.00;101312.72;1802817;77;21112;-63
2021/11/04 00:30:47;;;;;;;32.60;21.15;;;;;;;12.24;100.00;101310.38;1811854;77;21012;-63
2021/11/04 00:33:14;;;;;;;36.85;21.20;;;;;;;12.28;100.00;101317.44;1801015;77;21038;-63
2021/11/04 00:35:41;;;;;;;32.00;20.77;;;;;;;12.29;100.00;101312.92;1809170;77;21078;-62
2021/11/04 00:38:07;;;;;;;33.88;20.72;;;;;;;12.29;100.00;101316.50;1807443;77;21956;-63
2021/11/04 00:40:35;;;;;;;32.25;20.82;;;;;;;12.34;100.00;101315.47;1799738;77;21125;-63
2021/11/04 00:43:02;;;;;;;32.03;20.88;;;;;;;12.40;100.00;101318.84;1808435;77;20959;-64
2021/11/04 00:45:29;;;;;;;34.50;20.43;;;;;;;12.45;100.00;101308.80;1814257;77;21575;-63
2021/11/04 00:47:56;;;;;;;35.73;21.50;;;;;;;12.50;100.00;101312.69;1815727;77;21510;-64
2021/11/04 00:50:24;;;;;;;32.93;21.15;;;;;;;12.53;100.00;101308.98;1813675;77;21092;-63
2021/11/04 00:52:51;;;;;;;35.30;22.60;;;;;;;12.56;100.00;101316.95;1806099;77;21524;-64
2021/11/04 00:55:17;;;;;;;37.67;22.00;;;;;;;12.58;100.00;101314.63;1806517;77;21120;-64
2021/11/04 00:57:43;;;;;;;38.53;23.32;;;;;;;12.63;100.00;101304.17;1804921;77;21112;-64
2021/11/04 01:00:12;;;;;;;35.92;23.05;;;;;;;12.67;100.00;101301.78;1806355;77;21022;-64
2021/11/04 01:02:40;;;;;;;35.08;22.82;;;;;;;12.75;100.00;101301.06;1806717;77;21734;-63
2021/11/04 01:05:07;;;;;;;36.88;21.35;;;;;;;12.81;100.00;101298.15;1800455;77;21109;-62
2021/11/04 01:07:34;;;;;;;35.60;22.15;;;;;;;12.81;100.00;101299.95;1802021;77;21089;-64
2021/11/04 01:10:01;;;;;;;36.38;23.12;;;;;;;12.79;100.00;101301.36;1812636;77;21276;-64
2021/11/04 01:12:28;;;;;;;40.65;23.25;;;;;;;12.76;100.00;101300.12;1790054;77;21506;-63
2021/11/04 01:14:54;;;;;;;44.40;24.43;;;;;;;12.78;100.00;101298.27;1813481;77;21120;-63
2021/11/04 01:17:20;;;;;;;34.90;23.18;;;;;;;12.81;100.00;101302.19;1802978;77;20987;-63
2021/11/04 01:19:47;;;;;;;32.70;21.45;;;;;;;12.85;100.00;101305.17;1811128;77;21498;-63
2021/11/04 01:22:14;;;;;;;36.15;22.77;;;;;;;12.88;100.00;101305.05;1805194;77;21048;-63
2021/11/04 01:24:42;;;;;;;40.03;23.00;;;;;;;12.92;100.00;101300.91;1819497;77;21059;-62
2021/11/04 01:27:09;;;;;;;31.40;21.15;;;;;;;12.95;100.00;101312.94;1814701;77;21531;-62
2021/11/04 01:29:36;;;;;;;35.95;22.32;;;;;;;12.98;100.00;101308.30;1803984;77;21709;-63
2021/11/04 01:32:04;;;;;;;37.17;22.65;;;;;;;13.02;100.00;101309.08;1804908;77;21112;-62
2021/11/04 01:34:30;;;;;;;36.95;23.10;;;;;;;13.03;100.00;101302.76;1808925;77;21183;-62
2021/11/04 01:36:58;;;;;;;37.40;23.77;;;;;;;13.08;100.00;101306.16;1822868;77;21482;-63
2021/11/04 01:39:25;;;;;;;40.48;23.32;;;;;;;13.12;100.00;101309.14;1818255;77;21472;-63
2021/11/04 01:41:53;;;;;;;42.17;25.05;;;;;;;13.14;100.00;101316.69;1812363;77;21036;-63
2021/11/04 01:44:19;;;;;;;51.42;25.23;;;;;;;13.18;100.00;101312.97;1811484;77;21011;-63
2021/11/04 01:46:48;;;;;;;39.40;24.37;;;;;;;13.20;100.00;101314.24;1817002;77;21357;-63
2021/11/04 01:49:16;;;;;;;40.00;25.75;;;;;;;13.20;100.00;101314.73;1796602;77;21022;-63
2021/11/04 01:51:44;;;;;;;48.33;26.65;;;;;;;13.23;100.00;101308.73;1808574;77;21583;-63
2021/11/04 01:54:11;;;;;;;47.33;28.17;;;;;;;13.24;100.00;101305.11;1810159;77;21086;-64
2021/11/04 01:56:39;;;;;;;47.60;26.23;;;;;;;13.27;100.00;101314.90;1813380;77;22097;-63
2021/11/04 01:59:07;;;;;;;43.20;26.73;;;;;;;13.28;100.00;101313.51;1805549;77;21053;-63
2021/11/04 02:01:35;;;;;;;48.58;27.35;;;;;;;13.33;100.00;101317.35;1814589;77;21030;-63
2021/11/04 02:04:22;;;;;;;41.83;27.35;;;;;;;13.39;100.00;101322.98;1808314;77;21480;-63
2021/11/04 02:07:02;;;;;;;46.15;28.70;;;;;;;13.44;100.00;101325.06;1814835;77;21055;-64
2021/11/04 02:09:38;;;;;;;44.30;28.38;;;;;;;13.49;100.00;101322.20;1817677;77;22047;-63
2021/11/04 02:12:23;;;;;;;48.78;28.17;;;;;;;13.51;100.00;101329.75;1804436;77;21589;-63
2021/11/04 02:14:53;;;;;;;43.75;27.07;;;;;;;13.56;100.00;101333.14;1785803;77;22188;-64
2021/11/04 02:17:21;;;;;;;45.75;26.10;;;;;;;13.66;100.00;101342.64;1811510;77;21796;-63
2021/11/04 02:19:56;;;;;;;48.38;28.85;;;;;;;13.70;100.00;101338.00;1821906;77;21086;-56
2021/11/04 02:22:38;;;;;;;;;;;;;;;13.75;100.00;101330.15;1806078;77;21018;-56
2021/11/04 02:25:16;;;;;;;46.70;28.07;;;;;;;13.82;100.00;101332.63;1808300;77;20412;-55
2021/11/04 02:27:47;;;;;;;42.73;25.95;;;;;;;13.88;100.00;101335.07;1813957;77;21029;-55
2021/11/04 02:30:14;;;;;;;42.45;25.57;;;;;;;13.92;100.00;101327.27;1823246;77;21050;-56
2021/11/04 02:32:42;;;;;;;42.55;25.55;;;;;;;13.90;100.00;101330.00;1808533;77;21050;-56
2021/11/04 02:35:09;;;;;;;43.00;25.23;;;;;;;13.89;100.00;101322.00;1814159;77;21070;-56
2021/11/04 02:37:36;;;;;;;40.75;25.30;;;;;;;13.89;100.00;101334.13;1813959;77;21009;-56
2021/11/04 02:40:03;;;;;;;43.40;25.92;;;;;;;13.96;100.00;101341.02;1816134;77;21065;-57
2021/11/04 02:42:29;;;;;;;43.78;26.20;;;;;;;14.01;100.00;101346.23;1819244;77;21779;-55
2021/11/04 02:44:56;;;;;;;41.15;25.17;;;;;;;13.99;100.00;101347.64;1820350;77;21023;-56
2021/11/04 02:47:23;;;;;;;41.50;25.92;;;;;;;13.99;100.00;101353.03;1823528;77;21084;-55
2021/11/04 02:49:50;;;;;;;40.08;25.12;;;;;;;13.99;100.00;101353.03;1824265;77;21074;-56
2021/11/04 02:52:17;;;;;;;41.40;24.57;;;;;;;14.00;100.00;101346.70;1763048;79;21088;-56
2021/11/04 02:54:54;;;;;;;41.02;24.98;;;;;;;13.97;100.00;101354.05;1790850;78;21087;-55
2021/11/04 02:57:20;;;;;;;43.35;25.02;;;;;;;13.95;100.00;101356.79;1801432;79;20941;-56
2021/11/04 02:59:48;;;;;;;36.15;22.55;;;;;;;13.95;100.00;101349.19;1798562;78;21076;-55
2021/11/04 03:02:14;;;;;;;37.35;22.80;;;;;;;13.95;100.00;101352.75;1825887;77;21021;-57
2021/11/04 03:04:41;;;;;;;38.08;22.35;;;;;;;13.94;100.00;101362.27;1793169;79;21086;-55
2021/11/04 03:07:08;;;;;;;38.55;22.48;;;;;;;13.91;100.00;101357.86;1796571;79;21466;-55
2021/11/04 03:09:34;;;;;;;35.15;21.82;;;;;;;13.89;100.00;101362.43;1816002;77;21053;-56
2021/11/04 03:12:02;;;;;;;35.88;22.75;;;;;;;13.88;100.00;101356.63;1823320;77;21056;-55
2021/11/04 03:14:29;;;;;;;35.65;22.13;;;;;;;13.85;100.00;101368.41;1816733;77;21831;-55
2021/11/04 03:16:56;;;;;;;36.68;22.73;;;;;;;13.83;100.00;101368.07;1817283;77;21061;-55
2021/11/04 03:19:23;;;;;;;38.48;23.65;;;;;;;13.83;100.00;101379.71;1827059;77;21096;-56
2021/11/04 03:21:51;;;;;;;36.38;22.42;;;;;;;13.83;100.00;101384.24;1824793;77;21015;-55
2021/11/04 03:24:20;;;;;;;38.00;24.30;;;;;;;13.81;100.00;101375.30;1826715;77;21027;-56
2021/11/04 03:26:57;;;;;;;36.42;23.73;;;;;;;13.82;100.00;101371.70;1821608;77;21432;-56
2021/11/04 03:29:24;;;;;;;35.73;22.32;;;;;;;13.84;100.00;101383.30;1818741;77;21058;-55
2021/11/04 03:31:51;;;;;;;35.00;21.10;;;;;;;13.82;100.00;101386.05;1822417;78;21097;-56
2021/11/04 03:34:18;;;;;;;34.25;22.13;;;;;;;13.82;100.00;101379.30;1822442;77;21469;-56
2021/11/04 03:36:48;;;;;;;33.48;21.90;;;;;;;13.84;100.00;101373.88;1822957;77;21075;-57
2021/11/04 03:39:15;;;;;;;33.78;22.77;;;;;;;13.82;100.00;101377.09;1822707;77;20992;-56
2021/11/04 03:41:41;;;;;;;36.68;22.42;;;;;;;13.77;100.00;101369.18;1754947;77;21626;-56
2021/11/04 03:44:08;;;;;;;39.70;23.12;;;;;;;13.78;100.00;101370.05;1825050;77;21049;-55
2021/11/04 03:46:36;;;;;;;34.98;22.90;;;;;;;13.77;100.00;101382.66;1823258;77;21015;-58
2021/11/04 03:49:02;;;;;;;37.13;22.65;;;;;;;13.72;100.00;101384.17;1823459;77;22235;-55
2021/11/04 03:51:30;;;;;;;31.82;21.75;;;;;;;13.70;100.00;101386.50;1823899;77;21429;-56
2021/11/04 03:53:56;;;;;;;33.65;21.35;;;;;;;13.70;100.00;101390.09;1772207;77;21455;-58
2021/11/04 03:56:23;;;;;;;37.90;23.50;;;;;;;13.67;100.00;101382.58;1824797;77;21493;-55
2021/11/04 03:58:49;;;;;;;33.42;20.77;;;;;;;13.65;100.00;101391.19;1821250;77;21018;-57
2021/11/04 04:01:16;;;;;;;34.95;21.02;;;;;;;13.64;100.00;101396.17;1822460;77;21386;-56
2021/11/04 04:03:45;;;;;;;29.35;20.27;;;;;;;13.64;100.00;101405.16;1826286;77;21082;-55
2021/11/04 04:06:12;;;;;;;32.70;19.65;;;;;;;13.61;100.00;101404.78;1824627;77;21507;-56
2021/11/04 04:08:42;;;;;;;31.57;20.25;;;;;;;13.61;100.00;101402.09;1820706;77;21618;-56
2021/11/04 04:11:08;;;;;;;31.00;19.75;;;;;;;13.65;100.00;101397.92;1827764;77;20985;-56
2021/11/04 04:13:35;;;;;;;29.82;20.27;;;;;;;13.68;100.00;101402.75;1824623;77;21031;-56
2021/11/04 04:16:04;;;;;;;33.73;20.15;;;;;;;13.70;100.00;101408.95;1822134;77;22131;-55
2021/11/04 04:18:30;;;;;;;33.78;20.48;;;;;;;13.68;100.00;101408.13;1823686;77;21027;-57
2021/11/04 04:20:58;;;;;;;33.42;20.27;;;;;;;13.66;100.00;101410.01;1824364;77;21111;-56
2021/11/04 04:23:24;;;;;;;33.80;21.27;;;;;;;13.66;100.00;101410.01;1825159;77;21019;-55
2021/11/04 04:25:50;;;;;;;32.55;20.17;;;;;;;13.62;100.00;101417.80;1822108;77;21026;-55
2021/11/04 04:28:19;;;;;;;31.35;20.08;;;;;;;13.58;100.00;101418.83;1825123;77;21132;-56
2021/11/04 04:30:46;;;;;;;35.43;19.75;;;;;;;13.57;100.00;101413.92;1823446;77;21121;-56
2021/11/04 04:33:14;;;;;;;29.00;19.15;;;;;;;13.58;100.00;101412.09;1825182;77;21075;-55
2021/11/04 04:35:40;;;;;;;32.65;20.40;;;;;;;13.58;100.00;101411.64;1823132;77;21098;-55
2021/11/04 04:38:07;;;;;;;33.65;20.12;;;;;;;13.59;100.00;101413.84;1823147;77;20992;-57
2021/11/04 04:40:34;;;;;;;28.90;19.35;;;;;;;13.59;100.00;101407.11;1827071;77;21473;-55
2021/11/04 04:43:00;;;;;;;30.77;19.80;;;;;;;13.56;100.00;101416.20;1827372;77;21530;-56
2021/11/04 04:45:27;;;;;;;30.88;20.27;;;;;;;13.57;100.00;101419.77;1821786;77;21120;-56
2021/11/04 04:47:54;;;;;;;33.67;20.08;;;;;;;13.60;100.00;101426.41;1823203;77;21013;-56
2021/11/04 04:50:20;;;;;;;31.95;20.50;;;;;;;13.60;100.00;101429.97;1825754;77;21089;-56
2021/11/04 04:52:47;;;;;;;30.65;20.15;;;;;;;13.59;100.00;101428.67;1823724;77;21031;-56
2021/11/04 04:55:13;;;;;;;30.62;20.95;;;;;;;13.59;100.00;101430.02;1822443;77;21501;-56
2021/11/04 04:57:40;;;;;;;30.62;20.32;;;;;;;13.58;100.00;101431.84;1824047;77;22180;-56
2021/11/04 05:00:12;;;;;;;29.80;19.70;;;;;;;13.58;100.00;101430.95;1825327;77;21035;-55
2021/11/04 05:02:40;;;;;;;29.60;20.48;;;;;;;13.58;100.00;101431.84;1826611;77;21043;-56
2021/11/04 05:05:08;;;;;;;33.55;20.12;;;;;;;13.59;100.00;101434.05;1822070;77;21016;-56
2021/11/04 05:07:35;;;;;;;28.50;19.65;;;;;;;13.62;100.00;101435.31;1823980;77;20947;-56
2021/11/04 05:10:04;;;;;;;33.25;20.72;;;;;;;13.63;100.00;101430.34;1825157;77;21081;-57
2021/11/04 05:12:31;;;;;;;31.25;20.50;;;;;;;13.66;100.00;101436.95;1826827;77;21301;-63
2021/11/04 05:14:58;;;;;;;31.25;20.17;;;;;;;13.67;100.00;101440.06;1820912;77;21427;-63
2021/11/04 05:17:25;;;;;;;32.13;19.85;;;;;;;13.68;100.00;101440.47;1824372;77;21094;-64
2021/11/04 05:19:51;;;;;;;34.43;19.12;;;;;;;13.69;100.00;101438.64;1825755;77;21024;-63
2021/11/04 05:22:18;;;;;;;30.70;20.02;;;;;;;13.72;100.00;101434.02;1820128;77;21067;-63
2021/11/04 05:24:45;;;;;;;28.90;19.85;;;;;;;13.77;100.00;101432.97;1818816;77;21376;-63
2021/11/04 05:27:11;;;;;;;31.15;19.35;;;;;;;13.82;100.00;101434.56;1824404;77;21394;-64
2021/11/04 05:29:38;;;;;;;31.20;19.85;;;;;;;13.88;100.00;101434.80;1820605;77;21596;-64
2021/11/04 05:32:07;;;;;;;32.05;20.45;;;;;;;13.95;100.00;101445.75;1818893;77;21075;-63
2021/11/04 05:34:35;;;;;;;30.60;18.65;;;;;;;13.99;100.00;101444.69;1819640;77;21425;-63
2021/11/04 05:37:03;;;;;;;31.70;19.77;;;;;;;14.06;100.00;101448.52;1820371;77;20913;-63
2021/11/04 05:39:30;;;;;;;29.27;18.75;;;;;;;14.21;100.00;101454.64;1796107;77;21053;-64
2021/11/04 05:41:57;;;;;;;31.35;19.67;;;;;;;14.34;100.00;101452.34;1822906;77;20980;-64
2021/11/04 05:44:24;;;;;;;30.17;17.65;;;;;;;14.43;100.00;101459.19;1820100;77;21114;-63
2021/11/04 05:46:50;;;;;;;28.45;18.62;;;;;;;14.52;100.00;101472.34;1820256;77;21764;-64
2021/11/04 05:49:17;;;;;;;29.85;18.32;;;;;;;14.60;100.00;101467.98;1824553;77;20924;-65
2021/11/04 05:51:44;;;;;;;28.65;17.70;;;;;;;14.69;100.00;101470.75;1819721;77;21512;-63
2021/11/04 05:54:10;;;;;;;27.30;17.62;;;;;;;14.76;100.00;101468.26;1818756;77;20996;-65
2021/11/04 05:56:37;;;;;;;27.42;17.30;;;;;;;14.85;100.00;101475.96;1824964;77;21024;-62
2021/11/04 05:59:03;;;;;;;27.00;17.32;;;;;;;14.94;100.00;101486.86;1821422;77;21073;-64
2021/11/04 06:01:30;;;;;;;27.05;17.95;;;;;;;14.95;100.00;101478.30;1820949;77;21067;-63
2021/11/04 06:03:57;;;;;;;28.15;17.27;;;;;;;14.88;100.00;101478.53;1822735;77;21057;-63
2021/11/04 06:06:23;;;;;;;22.85;15.68;;;;;;;14.90;100.00;101479.83;1824201;77;21047;-63
2021/11/04 06:08:50;;;;;;;27.80;16.42;;;;;;;14.91;100.00;101470.78;1821943;77;21020;-64
2021/11/04 06:11:17;;;;;;;26.27;17.57;;;;;;;14.92;100.00;101466.25;1818607;77;21552;-64
2021/11/04 06:13:43;;;;;;;23.32;16.07;;;;;;;14.96;100.00;101469.25;1820229;77;21339;-64
2021/11/04 06:16:13;;;;;;;26.50;17.45;;;;;;;15.00;100.00;101461.42;1819334;77;21464;-63
2021/11/04 06:18:42;;;;;;;23.32;16.17;;;;;;;15.01;100.00;101461.83;1825506;77;21003;-64
2021/11/04 06:21:12;;;;;;;24.07;16.23;;;;;;;15.00;100.00;101471.73;1818897;77;21043;-65
2021/11/04 06:23:38;;;;;;;23.87;15.55;;;;;;;15.03;100.00;101462.19;1816962;77;21187;-63
2021/11/04 06:26:06;;;;;;;24.25;15.95;;;;;;;15.05;100.00;101466.15;1823882;77;21488;-63
2021/11/04 06:28:33;;;;;;;23.47;16.00;;;;;;;15.08;100.00;101474.61;1821050;77;21393;-64
2021/11/04 06:30:59;;;;;;;24.77;15.85;;;;;;;15.12;100.00;101489.24;1817255;77;21531;-64
2021/11/04 06:33:26;;;;;;;24.35;15.68;;;;;;;15.16;100.00;101488.20;1824011;77;21038;-64
2021/11/04 06:35:54;;;;;;;26.90;15.13;;;;;;;15.18;100.00;101491.70;1822753;77;21122;-64
2021/11/04 06:38:22;;;;;;;26.50;15.53;;;;;;;15.21;100.00;101494.73;1826441;77;21305;-64
2021/11/04 06:40:49;;;;;;;23.42;14.38;;;;;;;15.23;100.00;101486.58;1820758;77;21088;-66
2021/11/04 06:43:16;;;;;;;24.55;14.70;;;;;;;15.26;100.00;101475.62;1822830;77;21457;-66
2021/11/04 06:45:49;;;;;;;19.62;14.25;;;;;;;15.27;100.00;101480.09;1822391;77;21646;-63
2021/11/04 06:48:26;;;;;;;23.73;15.28;;;;;;;15.23;100.00;101487.92;1821903;77;21186;-65
2021/11/04 06:50:58;;;;;;;21.27;14.83;;;;;;;15.22;100.00;101491.56;1816606;77;21384;-64
2021/11/04 06:53:26;;;;;;;22.50;14.07;;;;;;;15.23;100.00;101485.22;1794763;77;21048;-63
2021/11/04 06:55:55;;;;;;;19.75;12.50;;;;;;;15.24;99.75;101491.03;1818591;77;21102;-64
2021/11/04 06:58:28;;;;;;;23.52;14.30;;;;;;;15.25;99.56;101495.48;1827773;77;21028;-63
2021/11/04 07:00:55;;;;;;;23.83;14.20;;;;;;;15.27;99.32;101491.78;1815631;77;22336;-63
2021/11/04 07:03:27;;;;;;;21.37;14.07;;;;;;;15.29;98.96;101498.00;1815337;77;21511;-64
2021/11/04 07:08:25;;;;;;;22.85;13.62;;;;;;;15.37;98.66;101507.13;1816572;77;21027;-64
2021/11/04 07:11:00;;;;;;;20.65;13.88;;;;;;;15.41;97.87;101501.99;1820609;77;21536;-63
2021/11/04 07:13:30;;;;;;;23.55;13.20;;;;;;;15.35;97.37;101494.13;1773596;79;21467;-64
2021/11/04 07:15:58;;;;;;;22.35;13.08;;;;;;;15.31;97.28;101500.16;1767645;79;21066;-66
2021/11/04 07:18:25;;;;;;;21.12;13.50;;;;;;;15.28;96.95;101494.00;1768400;79;21575;-65
2021/11/04 07:21:28;;;;;;;21.55;12.85;;;;;;;15.28;96.96;101504.34;1785068;78;22099;-65
2021/11/04 07:24:02;;;;;;;19.87;13.43;;;;;;;15.31;96.97;101498.81;1785659;78;22265;-69
2021/11/04 07:26:41;;;;;;;20.27;13.95;;;;;;;15.34;96.74;101501.83;1784234;78;21132;-65
2021/11/04 07:29:10;;;;;;;18.85;12.95;;;;;;;15.29;96.48;101492.59;1814017;77;21568;-63
2021/11/04 07:31:40;;;;;;;21.57;12.55;;;;;;;15.24;96.53;101492.38;1818795;77;21000;-65
2021/11/04 07:34:09;;;;;;;20.40;12.68;;;;;;;15.21;96.75;101492.52;1817759;77;21894;-64
2021/11/04 07:36:39;;;;;;;17.60;11.65;;;;;;;15.24;96.64;101493.73;1816356;77;22255;-66
2021/11/04 07:39:07;;;;;;;18.42;12.10;;;;;;;15.22;96.63;101488.38;1818040;77;21175;-64
2021/11/04 07:41:35;;;;;;;20.08;12.37;;;;;;;15.25;96.75;101496.38;1818954;77;21363;-64
2021/11/04 07:44:03;;;;;;;19.15;12.28;;;;;;;15.28;96.44;101489.95;1821029;77;21065;-63
2021/11/04 07:46:30;;;;;;;18.80;11.90;;;;;;;15.28;96.35;101496.25;1818180;77;21264;-65
2021/11/04 07:48:59;;;;;;;17.90;11.68;;;;;;;15.31;96.40;101490.70;1813065;77;21042;-66
2021/11/04 07:51:26;;;;;;;15.48;11.10;;;;;;;15.37;96.14;101493.63;1814416;77;21128;-65
2021/11/04 07:53:56;;;;;;;19.17;11.93;;;;;;;15.41;95.67;101493.89;1817137;77;21090;-64
2021/11/04 07:56:23;;;;;;;17.35;11.60;;;;;;;15.42;95.52;101492.05;1813424;77;21661;-64
2021/11/04 07:58:50;;;;;;;21.57;11.25;;;;;;;15.46;95.45;101499.96;1818467;77;21496;-64
2021/11/04 08:01:17;;;;;;;18.23;11.43;;;;;;;15.50;95.16;101506.58;1818692;77;21062;-63
2021/11/04 08:03:44;;;;;;;16.77;11.78;;;;;;;15.53;95.04;101496.98;1816981;77;21535;-63
2021/11/04 08:06:12;;;;;;;21.42;12.80;;;;;;;15.59;94.88;101500.30;1824692;77;21768;-64
2021/11/04 08:08:39;;;;;;;14.75;10.68;;;;;;;15.66;94.36;101503.61;1816084;77;21094;-56
2021/11/04 08:11:06;;;;;;;15.93;11.12;;;;;;;15.71;93.46;101501.58;1818561;77;20983;-57
2021/11/04 08:13:32;;;;;;;16.25;11.28;;;;;;;15.71;93.40;101498.87;1821963;77;21118;-54
2021/11/04 08:15:59;;;;;;;17.73;11.18;;;;;;;15.73;93.36;101496.97;1819093;77;22559;-57
2021/11/04 08:18:28;;;;;;;14.35;10.35;;;;;;;15.79;93.18;101487.72;1816186;77;21125;-55
2021/11/04 08:20:55;;;;;;;16.27;10.72;;;;;;;15.83;92.67;101488.47;1817641;77;21417;-55
2021/11/04 08:23:22;;;;;;;18.02;10.88;;;;;;;15.82;92.47;101498.39;1819550;77;21078;-56
2021/11/04 08:25:49;;;;;;;16.70;9.75;;;;;;;15.84;92.39;101501.89;1817587;77;21046;-56
2021/11/04 08:28:16;;;;;;;17.25;10.68;;;;;;;15.82;92.04;101488.06;1780832;78;21142;-57
2021/11/04 08:30:43;;;;;;;18.10;11.20;;;;;;;15.78;92.13;101483.72;1820917;77;21105;-56
2021/11/04 08:33:09;;;;;;;19.15;10.90;;;;;;;15.70;92.22;101478.19;1820328;77;20992;-57
2021/11/04 08:35:36;;;;;;;17.25;10.85;;;;;;;15.66;92.44;101475.23;1783218;78;21661;-56
2021/11/04 08:38:05;;;;;;;16.73;11.12;;;;;;;15.61;92.70;101471.86;1821323;77;21365;-59
2021/11/04 08:40:33;;;;;;;17.15;10.68;;;;;;;15.56;93.19;101477.92;1817383;77;21900;-56
2021/11/04 08:43:02;;;;;;;15.38;10.68;;;;;;;15.55;93.43;101482.47;1814654;77;21106;-56
2021/11/04 08:45:27;;;;;;;14.53;11.00;;;;;;;15.51;93.62;101476.80;1817488;77;21034;-55
2021/11/04 08:47:54;;;;;;;14.63;10.08;;;;;;;15.50;94.08;101480.45;1824260;77;21265;-55
2021/11/04 08:50:21;;;;;;;17.75;10.60;;;;;;;15.51;93.98;101469.14;1822613;77;22177;-59
2021/11/04 08:52:52;;;;;;;16.48;9.43;;;;;;;15.53;93.96;101465.90;1828984;77;21523;-55
2021/11/04 08:55:16;;;;;;;17.85;10.25;;;;;;;15.46;93.83;101463.94;1824196;77;21014;-56
2021/11/04 08:57:44;;;;;;;16.87;10.15;;;;;;;15.36;94.30;101464.81;1820660;77;21535;-56
2021/11/04 09:00:12;;;;;;;17.15;10.48;;;;;;;15.37;94.71;101465.25;1825032;77;21105;-56
2021/11/04 09:02:40;;;;;;;15.68;10.35;;;;;;;15.35;94.89;101459.01;1820079;77;21086;-57
2021/11/04 09:05:08;;;;;;;15.43;10.28;;;;;;;15.33;95.13;101454.14;1780287;78;21086;-56
2021/11/04 09:07:37;;;;;;;17.62;11.30;;;;;;;15.35;95.33;101450.90;1824710;77;21039;-55
2021/11/04 09:10:07;;;;;;;18.98;10.10;;;;;;;15.36;95.29;101449.95;1823291;77;21504;-56
2021/11/04 09:12:35;;;;;;;19.52;9.95;;;;;;;15.36;95.37;101444.55;1820588;77;20985;-56
2021/11/04 09:15:03;;;;;;;19.10;10.90;;;;;;;15.38;95.57;101445.39;1820892;77;21011;-56
2021/11/04 09:17:32;;;;;;;17.65;9.78;;;;;;;15.44;95.44;101445.11;1820286;77;21108;-57
2021/11/04 09:19:59;;;;;;;17.70;10.95;;;;;;;15.49;95.22;101442.67;1817521;77;21443;-58
2021/11/04 09:22:26;;;;;;;16.80;10.32;;;;;;;15.53;95.18;101441.58;1813188;77;21501;-56
2021/11/04 09:24:54;;;;;;;16.65;10.05;;;;;;;15.57;95.15;101435.08;1813354;77;21527;-58
2021/11/04 09:27:21;;;;;;;17.62;10.65;;;;;;;15.61;94.78;101433.53;1813506;77;21122;-56
2021/11/04 09:29:48;;;;;;;17.20;9.50;;;;;;;15.62;94.80;101433.08;1813977;77;21051;-59
2021/11/04 09:32:15;;;;;;;18.45;10.38;;;;;;;15.68;94.85;101428.73;1776210;79;21110;-57
2021/11/04 09:34:42;;;;;;;17.92;10.20;;;;;;;15.75;94.66;101428.84;1746221;80;21449;-56
2021/11/04 09:37:08;;;;;;;25.68;10.20;;;;;;;15.85;94.32;101422.53;1766943;79;21107;-57
2021/11/04 09:39:36;;;;;;;16.73;10.40;;;;;;;15.88;93.90;101433.23;1804807;77;21099;-59
2021/11/04 09:42:04;;;;;;;18.77;10.72;;;;;;;15.90;93.93;101417.81;1810945;77;21037;-57
2021/11/04 09:44:33;;;;;;;17.10;10.82;;;;;;;15.95;93.76;101423.02;1810929;77;21527;-58
2021/11/04 09:47:00;;;;;;;17.70;10.85;;;;;;;15.98;93.44;101421.52;1812902;77;20947;-60
2021/11/04 09:49:30;;;;;;;15.68;10.20;;;;;;;16.02;93.42;101423.61;1810461;77;21023;-58
2021/11/04 09:51:57;;;;;;;16.15;10.68;;;;;;;16.08;93.02;101422.45;1809207;77;20900;-57
2021/11/04 09:54:24;;;;;;;16.90;10.23;;;;;;;16.11;92.60;101433.12;1807815;77;21129;-56
2021/11/04 09:56:52;;;;;;;20.37;10.88;;;;;;;16.12;92.52;101425.41;1809861;77;21035;-56
2021/11/04 09:59:20;;;;;;;15.65;9.75;;;;;;;16.16;92.69;101422.95;1808973;77;21161;-55
2021/11/04 10:01:49;;;;;;;16.95;9.78;;;;;;;16.25;92.50;101426.58;1809265;77;21727;-57
2021/11/04 10:04:18;;;;;;;15.18;10.63;;;;;;;16.32;92.01;101429.84;1813548;77;20951;-57
2021/11/04 10:06:45;;;;;;;20.23;11.88;;;;;;;16.40;91.73;101423.60;1807675;77;21101;-58
2021/11/04 10:09:12;;;;;;;15.88;10.45;;;;;;;16.46;91.07;101422.40;1780385;77;21023;-58
2021/11/04 10:11:42;;;;;;;17.95;11.95;;;;;;;16.50;90.90;101422.67;1806966;77;21085;-56
2021/11/04 10:14:14;;;;;;;17.98;10.82;;;;;;;16.56;90.58;101419.66;1809646;77;21018;-56
2021/11/04 10:16:41;;;;;;;16.25;10.65;;;;;;;16.59;90.04;101419.50;1806531;77;21035;-57
2021/11/04 10:19:10;;;;;;;16.10;10.48;;;;;;;16.59;89.88;101420.85;1804415;77;21132;-57
2021/11/04 10:21:41;;;;;;;16.55;10.63;;;;;;;16.58;89.90;101424.52;1812016;77;21101;-56
2021/11/04 10:24:21;;;;;;;15.65;10.38;;;;;;;16.59;89.81;101414.09;1816917;77;20980;-57
2021/11/04 10:26:54;;;;;;;17.67;10.58;;;;;;;16.59;89.83;101410.02;1818513;77;20994;-57
2021/11/04 10:29:17;;;;;;;18.62;9.53;;;;;;;16.61;89.65;101412.67;1786495;78;21528;-57
2021/11/04 10:31:47;;;;;;;13.90;8.73;;;;;;;16.58;89.73;101413.69;1818181;77;21449;-57
2021/11/04 10:34:30;;;;;;;16.25;9.45;;;;;;;16.57;89.85;101414.64;1818952;77;21046;-56
2021/11/04 10:37:17;;;;;;;18.07;9.03;;;;;;;16.55;89.75;101421.96;1818484;77;21090;-57
2021/11/04 10:39:48;;;;;;;15.83;9.88;;;;;;;16.47;89.66;101416.06;1816956;77;20994;-56
2021/11/04 10:42:15;;;;;;;13.72;8.25;;;;;;;16.39;90.16;101408.32;1821258;77;20876;-55
2021/11/04 10:44:42;;;;;;;15.72;8.70;;;;;;;16.41;90.42;101413.64;1820542;77;21511;-56
2021/11/04 10:47:09;;;;;;;17.17;9.85;;;;;;;16.38;90.30;101413.33;1819697;77;21058;-57
2021/11/04 10:49:51;;;;;;;16.82;9.58;;;;;;;16.35;90.27;101412.10;1791073;77;22237;-59
2021/11/04 10:52:24;;;;;;;14.33;8.30;;;;;;;16.33;90.37;101404.08;1787436;78;21534;-56
2021/11/04 10:54:52;;;;;;;14.18;8.23;;;;;;;16.31;90.37;101405.98;1820732;77;21097;-55
2021/11/04 10:57:38;;;;;;;14.03;8.70;;;;;;;16.28;90.34;101403.44;1821874;77;21088;-63
2021/11/04 11:00:24;;;;;;;16.05;8.33;;;;;;;16.27;90.43;101400.33;1817570;77;21672;-62
2021/11/04 11:03:12;;;;;;;16.00;8.73;;;;;;;16.25;90.42;101403.59;1815410;77;21090;-63
2021/11/04 11:05:41;;;;;;;10.93;7.30;;;;;;;16.22;90.48;101392.88;1816670;77;21475;-62
2021/11/04 11:08:11;;;;;;;14.60;7.80;;;;;;;16.20;90.52;101400.20;1816706;77;21257;-62
2021/11/04 11:10:50;;;;;;;12.35;6.78;;;;;;;16.20;90.73;101394.79;1813092;77;21567;-61
2021/11/04 11:13:18;;;;;;;10.80;6.65;;;;;;;16.25;90.72;101390.06;1811943;77;21047;-61